sensor_id;sensor_type;location;lat;lon;timestamp;P1;durP1;ratioP1;P2;durP2;ratioP2
1382;SDS011;685;47.196;11.880;2023-03-23T00:00:52;3.83;;;3.43;;
1382;SDS011;685;47.196;11.880;2023-03-23T00:03:20;4.13;;;3.77;;
1382;SDS011;685;47.196;11.880;2023-03-23T00:05:47;4.10;;;3.20;;
1382;SDS011;685;47.196;11.880;2023-03-23T00:08:18;4.90;;;3.70;;
1382;SDS011;685;47.196;11.880;2023-03-23T00:10:47;4.17;;;3.87;;
1382;SDS011;685;47.196;11.880;2023-03-23T00:13:17;5.43;;;4.27;;
1382;SDS011;685;47.196;11.880;2023-03-23T00:15:45;5.20;;;3.80;;
1382;SDS011;685;47.196;11.880;2023-03-23T00:18:14;4.63;;;3.57;;
1382;SDS011;685;47.196;11.880;2023-03-23T00:20:46;3.10;;;2.80;;
1382;SDS011;685;47.196;11.880;2023-03-23T00:23:14;3.80;;;3.40;;
1382;SDS011;685;47.196;11.880;2023-03-23T00:25:46;4.87;;;3.60;;
1382;SDS011;685;47.196;11.880;2023-03-23T00:28:14;3.83;;;3.53;;
1382;SDS011;685;47.196;11.880;2023-03-23T00:30:41;3.53;;;3.13;;
1382;SDS011;685;47.196;11.880;2023-03-23T00:33:09;4.77;;;3.20;;
1382;SDS011;685;47.196;11.880;2023-03-23T00:35:38;5.17;;;3.23;;
1382;SDS011;685;47.196;11.880;2023-03-23T00:38:06;3.83;;;3.20;;
1382;SDS011;685;47.196;11.880;2023-03-23T00:40:33;5.20;;;3.20;;
1382;SDS011;685;47.196;11.880;2023-03-23T00:43:03;4.90;;;3.63;;
1382;SDS011;685;47.196;11.880;2023-03-23T00:45:30;5.20;;;4.17;;
1382;SDS011;685;47.196;11.880;2023-03-23T00:47:59;3.80;;;3.50;;
1382;SDS011;685;47.196;11.880;2023-03-23T00:50:29;4.73;;;3.30;;
1382;SDS011;685;47.196;11.880;2023-03-23T00:52:56;7.97;;;3.70;;
1382;SDS011;685;47.196;11.880;2023-03-23T00:55:23;3.83;;;3.43;;
1382;SDS011;685;47.196;11.880;2023-03-23T00:57:51;5.80;;;4.53;;
1382;SDS011;685;47.196;11.880;2023-03-23T01:00:20;5.73;;;4.10;;
1382;SDS011;685;47.196;11.880;2023-03-23T01:02:48;4.37;;;3.70;;
1382;SDS011;685;47.196;11.880;2023-03-23T01:05:17;3.87;;;3.47;;
1382;SDS011;685;47.196;11.880;2023-03-23T01:07:44;3.80;;;3.20;;
1382;SDS011;685;47.196;11.880;2023-03-23T01:10:11;3.83;;;3.37;;
1382;SDS011;685;47.196;11.880;2023-03-23T01:12:41;4.47;;;4.07;;
1382;SDS011;685;47.196;11.880;2023-03-23T01:15:09;5.70;;;3.90;;
1382;SDS011;685;47.196;11.880;2023-03-23T01:17:40;4.27;;;3.20;;
1382;SDS011;685;47.196;11.880;2023-03-23T01:20:07;5.10;;;4.70;;
1382;SDS011;685;47.196;11.880;2023-03-23T01:22:35;5.27;;;3.90;;
1382;SDS011;685;47.196;11.880;2023-03-23T01:25:03;4.27;;;3.60;;
1382;SDS011;685;47.196;11.880;2023-03-23T01:27:30;3.30;;;3.00;;
1382;SDS011;685;47.196;11.880;2023-03-23T01:29:57;4.13;;;3.57;;
1382;SDS011;685;47.196;11.880;2023-03-23T01:32:24;5.27;;;3.60;;
1382;SDS011;685;47.196;11.880;2023-03-23T01:34:52;3.40;;;3.10;;
1382;SDS011;685;47.196;11.880;2023-03-23T01:37:19;4.80;;;3.80;;
1382;SDS011;685;47.196;11.880;2023-03-23T01:39:51;4.60;;;3.87;;
1382;SDS011;685;47.196;11.880;2023-03-23T01:42:20;4.30;;;3.90;;
1382;SDS011;685;47.196;11.880;2023-03-23T01:47:52;3.93;;;3.47;;
1382;SDS011;685;47.196;11.880;2023-03-23T01:50:25;3.60;;;3.23;;
1382;SDS011;685;47.196;11.880;2023-03-23T01:52:54;8.30;;;3.80;;
1382;SDS011;685;47.196;11.880;2023-03-23T01:55:24;4.13;;;3.67;;
1382;SDS011;685;47.196;11.880;2023-03-23T01:57:53;4.30;;;3.30;;
1382;SDS011;685;47.196;11.880;2023-03-23T02:00:21;4.80;;;3.50;;
1382;SDS011;685;47.196;11.880;2023-03-23T02:02:49;4.80;;;4.30;;
1382;SDS011;685;47.196;11.880;2023-03-23T02:05:20;5.03;;;4.03;;
1382;SDS011;685;47.196;11.880;2023-03-23T02:07:54;5.93;;;4.47;;
1382;SDS011;685;47.196;11.880;2023-03-23T02:10:27;5.17;;;4.00;;
1382;SDS011;685;47.196;11.880;2023-03-23T02:12:55;4.40;;;4.00;;
1382;SDS011;685;47.196;11.880;2023-03-23T02:15:23;4.37;;;3.73;;
1382;SDS011;685;47.196;11.880;2023-03-23T02:17:53;3.60;;;3.30;;
1382;SDS011;685;47.196;11.880;2023-03-23T02:20:33;3.93;;;3.23;;
1382;SDS011;685;47.196;11.880;2023-03-23T02:23:37;4.33;;;3.93;;
1382;SDS011;685;47.196;11.880;2023-03-23T02:26:19;3.80;;;3.47;;
1382;SDS011;685;47.196;11.880;2023-03-23T02:29:03;5.67;;;3.67;;
1382;SDS011;685;47.196;11.880;2023-03-23T02:31:56;4.13;;;3.20;;
1382;SDS011;685;47.196;11.880;2023-03-23T02:34:33;4.63;;;3.80;;
1382;SDS011;685;47.196;11.880;2023-03-23T02:37:08;4.43;;;3.30;;
1382;SDS011;685;47.196;11.880;2023-03-23T02:39:40;4.17;;;3.77;;
1382;SDS011;685;47.196;11.880;2023-03-23T02:42:12;8.93;;;4.40;;
1382;SDS011;685;47.196;11.880;2023-03-23T02:44:42;6.40;;;4.73;;
1382;SDS011;685;47.196;11.880;2023-03-23T02:47:12;6.67;;;6.07;;
1382;SDS011;685;47.196;11.880;2023-03-23T02:49:43;5.30;;;4.27;;
1382;SDS011;685;47.196;11.880;2023-03-23T02:52:15;4.77;;;4.37;;
1382;SDS011;685;47.196;11.880;2023-03-23T02:54:46;5.07;;;4.10;;
1382;SDS011;685;47.196;11.880;2023-03-23T02:57:16;3.83;;;3.53;;
1382;SDS011;685;47.196;11.880;2023-03-23T02:59:43;5.00;;;4.20;;
1382;SDS011;685;47.196;11.880;2023-03-23T03:02:12;4.30;;;3.90;;
1382;SDS011;685;47.196;11.880;2023-03-23T03:04:40;5.10;;;4.50;;
1382;SDS011;685;47.196;11.880;2023-03-23T03:07:15;4.57;;;4.17;;
1382;SDS011;685;47.196;11.880;2023-03-23T03:09:58;12.87;;;9.10;;
1382;SDS011;685;47.196;11.880;2023-03-23T03:12:30;7.03;;;5.03;;
1382;SDS011;685;47.196;11.880;2023-03-23T03:15:06;5.83;;;4.47;;
1382;SDS011;685;47.196;11.880;2023-03-23T03:17:40;4.63;;;3.87;;
1382;SDS011;685;47.196;11.880;2023-03-23T03:20:10;3.77;;;3.37;;
1382;SDS011;685;47.196;11.880;2023-03-23T03:22:43;4.47;;;4.07;;
1382;SDS011;685;47.196;11.880;2023-03-23T03:25:12;6.93;;;4.50;;
1382;SDS011;685;47.196;11.880;2023-03-23T03:27:42;7.23;;;4.57;;
1382;SDS011;685;47.196;11.880;2023-03-23T03:30:14;4.77;;;4.27;;
1382;SDS011;685;47.196;11.880;2023-03-23T03:32:47;4.27;;;3.80;;
1382;SDS011;685;47.196;11.880;2023-03-23T03:35:16;6.03;;;4.33;;
1382;SDS011;685;47.196;11.880;2023-03-23T03:37:44;11.07;;;4.63;;
1382;SDS011;685;47.196;11.880;2023-03-23T03:40:13;5.30;;;4.80;;
1382;SDS011;685;47.196;11.880;2023-03-23T03:42:42;4.90;;;4.23;;
1382;SDS011;685;47.196;11.880;2023-03-23T03:45:11;6.07;;;5.47;;
1382;SDS011;685;47.196;11.880;2023-03-23T03:47:39;6.63;;;4.20;;
1382;SDS011;685;47.196;11.880;2023-03-23T03:50:07;4.60;;;3.70;;
1382;SDS011;685;47.196;11.880;2023-03-23T03:52:35;6.60;;;4.13;;
1382;SDS011;685;47.196;11.880;2023-03-23T03:55:05;5.27;;;4.60;;
1382;SDS011;685;47.196;11.880;2023-03-23T03:57:33;4.97;;;3.80;;
1382;SDS011;685;47.196;11.880;2023-03-23T04:00:00;8.30;;;5.23;;
1382;SDS011;685;47.196;11.880;2023-03-23T04:02:37;4.33;;;3.93;;
1382;SDS011;685;47.196;11.880;2023-03-23T04:05:05;5.10;;;4.20;;
1382;SDS011;685;47.196;11.880;2023-03-23T04:07:34;6.37;;;4.57;;
1382;SDS011;685;47.196;11.880;2023-03-23T04:10:05;4.17;;;3.77;;
1382;SDS011;685;47.196;11.880;2023-03-23T04:12:33;5.03;;;4.53;;
1382;SDS011;685;47.196;11.880;2023-03-23T04:15:00;5.67;;;4.70;;
1382;SDS011;685;47.196;11.880;2023-03-23T04:17:28;4.20;;;3.80;;
1382;SDS011;685;47.196;11.880;2023-03-23T04:19:55;6.20;;;5.60;;
1382;SDS011;685;47.196;11.880;2023-03-23T04:22:24;5.37;;;4.87;;
1382;SDS011;685;47.196;11.880;2023-03-23T04:24:55;4.60;;;4.20;;
1382;SDS011;685;47.196;11.880;2023-03-23T04:27:25;4.03;;;3.63;;
1382;SDS011;685;47.196;11.880;2023-03-23T04:29:53;5.37;;;4.87;;
1382;SDS011;685;47.196;11.880;2023-03-23T04:32:21;4.83;;;4.20;;
1382;SDS011;685;47.196;11.880;2023-03-23T04:34:49;5.30;;;4.60;;
1382;SDS011;685;47.196;11.880;2023-03-23T04:37:16;5.07;;;4.57;;
1382;SDS011;685;47.196;11.880;2023-03-23T04:39:43;5.57;;;4.23;;
1382;SDS011;685;47.196;11.880;2023-03-23T04:42:11;5.23;;;4.07;;
1382;SDS011;685;47.196;11.880;2023-03-23T04:44:40;4.20;;;3.73;;
1382;SDS011;685;47.196;11.880;2023-03-23T04:47:08;5.03;;;4.23;;
1382;SDS011;685;47.196;11.880;2023-03-23T04:49:35;4.43;;;4.03;;
1382;SDS011;685;47.196;11.880;2023-03-23T04:52:02;6.47;;;4.07;;
1382;SDS011;685;47.196;11.880;2023-03-23T04:54:30;4.30;;;3.90;;
1382;SDS011;685;47.196;11.880;2023-03-23T04:56:57;4.67;;;4.27;;
1382;SDS011;685;47.196;11.880;2023-03-23T04:59:24;6.77;;;4.90;;
1382;SDS011;685;47.196;11.880;2023-03-23T05:01:54;6.27;;;5.30;;
1382;SDS011;685;47.196;11.880;2023-03-23T05:04:21;5.60;;;4.70;;
1382;SDS011;685;47.196;11.880;2023-03-23T05:06:50;7.23;;;4.90;;
1382;SDS011;685;47.196;11.880;2023-03-23T05:09:17;4.23;;;3.90;;
1382;SDS011;685;47.196;11.880;2023-03-23T05:11:45;5.77;;;4.73;;
1382;SDS011;685;47.196;11.880;2023-03-23T05:14:12;4.70;;;4.20;;
1382;SDS011;685;47.196;11.880;2023-03-23T05:16:39;4.90;;;4.30;;
1382;SDS011;685;47.196;11.880;2023-03-23T05:19:07;5.77;;;4.67;;
1382;SDS011;685;47.196;11.880;2023-03-23T05:21:34;5.50;;;5.00;;
1382;SDS011;685;47.196;11.880;2023-03-23T05:24:02;7.10;;;5.10;;
1382;SDS011;685;47.196;11.880;2023-03-23T05:26:29;5.50;;;4.93;;
1382;SDS011;685;47.196;11.880;2023-03-23T05:28:57;5.07;;;4.40;;
1382;SDS011;685;47.196;11.880;2023-03-23T05:31:24;4.67;;;4.27;;
1382;SDS011;685;47.196;11.880;2023-03-23T05:33:51;8.00;;;4.90;;
1382;SDS011;685;47.196;11.880;2023-03-23T05:36:20;8.40;;;5.77;;
1382;SDS011;685;47.196;11.880;2023-03-23T05:38:47;5.87;;;4.77;;
1382;SDS011;685;47.196;11.880;2023-03-23T05:41:15;5.70;;;5.20;;
1382;SDS011;685;47.196;11.880;2023-03-23T05:43:42;6.10;;;4.60;;
1382;SDS011;685;47.196;11.880;2023-03-23T05:46:09;4.63;;;4.10;;
1382;SDS011;685;47.196;11.880;2023-03-23T05:48:36;5.10;;;4.53;;
1382;SDS011;685;47.196;11.880;2023-03-23T05:51:03;6.00;;;5.40;;
1382;SDS011;685;47.196;11.880;2023-03-23T05:53:32;10.67;;;7.67;;
1382;SDS011;685;47.196;11.880;2023-03-23T05:56:00;8.27;;;7.23;;
1382;SDS011;685;47.196;11.880;2023-03-23T05:58:28;7.77;;;6.90;;
1382;SDS011;685;47.196;11.880;2023-03-23T06:00:56;6.33;;;5.60;;
1382;SDS011;685;47.196;11.880;2023-03-23T06:03:23;5.80;;;5.30;;
1382;SDS011;685;47.196;11.880;2023-03-23T06:05:50;5.83;;;5.23;;
1382;SDS011;685;47.196;11.880;2023-03-23T06:08:17;4.60;;;4.27;;
1382;SDS011;685;47.196;11.880;2023-03-23T06:10:46;6.20;;;5.60;;
1382;SDS011;685;47.196;11.880;2023-03-23T06:13:13;7.83;;;5.93;;
1382;SDS011;685;47.196;11.880;2023-03-23T06:15:40;7.73;;;5.40;;
1382;SDS011;685;47.196;11.880;2023-03-23T06:18:07;8.77;;;7.87;;
1382;SDS011;685;47.196;11.880;2023-03-23T06:20:35;8.50;;;7.00;;
1382;SDS011;685;47.196;11.880;2023-03-23T06:23:02;11.60;;;7.77;;
1382;SDS011;685;47.196;11.880;2023-03-23T06:25:29;11.03;;;9.80;;
1382;SDS011;685;47.196;11.880;2023-03-23T06:27:58;7.03;;;6.33;;
1382;SDS011;685;47.196;11.880;2023-03-23T06:30:27;6.37;;;5.27;;
1382;SDS011;685;47.196;11.880;2023-03-23T06:32:54;5.90;;;5.40;;
1382;SDS011;685;47.196;11.880;2023-03-23T06:35:21;6.60;;;5.57;;
1382;SDS011;685;47.196;11.880;2023-03-23T06:37:48;8.83;;;5.10;;
1382;SDS011;685;47.196;11.880;2023-03-23T06:40:16;6.27;;;5.67;;
1382;SDS011;685;47.196;11.880;2023-03-23T06:42:43;10.03;;;5.40;;
1382;SDS011;685;47.196;11.880;2023-03-23T06:45:12;6.17;;;5.00;;
1382;SDS011;685;47.196;11.880;2023-03-23T06:47:39;9.00;;;5.20;;
1382;SDS011;685;47.196;11.880;2023-03-23T06:50:06;7.37;;;5.00;;
1382;SDS011;685;47.196;11.880;2023-03-23T06:52:33;7.17;;;5.40;;
1382;SDS011;685;47.196;11.880;2023-03-23T06:55:01;5.97;;;5.37;;
1382;SDS011;685;47.196;11.880;2023-03-23T06:57:27;9.40;;;6.17;;
1382;SDS011;685;47.196;11.880;2023-03-23T06:59:55;6.80;;;5.17;;
1382;SDS011;685;47.196;11.880;2023-03-23T07:02:23;4.57;;;4.20;;
1382;SDS011;685;47.196;11.880;2023-03-23T07:04:51;6.13;;;5.53;;
1382;SDS011;685;47.196;11.880;2023-03-23T07:07:19;9.47;;;7.57;;
1382;SDS011;685;47.196;11.880;2023-03-23T07:09:46;10.80;;;8.60;;
1382;SDS011;685;47.196;11.880;2023-03-23T07:12:13;9.43;;;8.20;;
1382;SDS011;685;47.196;11.880;2023-03-23T07:14:40;9.77;;;8.57;;
1382;SDS011;685;47.196;11.880;2023-03-23T07:17:07;9.67;;;8.27;;
1382;SDS011;685;47.196;11.880;2023-03-23T07:19:36;10.53;;;7.30;;
1382;SDS011;685;47.196;11.880;2023-03-23T07:22:03;11.23;;;7.73;;
1382;SDS011;685;47.196;11.880;2023-03-23T07:24:30;8.40;;;7.40;;
1382;SDS011;685;47.196;11.880;2023-03-23T07:26:57;6.17;;;5.67;;
1382;SDS011;685;47.196;11.880;2023-03-23T07:29:24;7.40;;;5.83;;
1382;SDS011;685;47.196;11.880;2023-03-23T07:31:52;16.23;;;8.00;;
1382;SDS011;685;47.196;11.880;2023-03-23T07:34:19;8.83;;;7.27;;
1382;SDS011;685;47.196;11.880;2023-03-23T07:36:47;9.70;;;7.00;;
1382;SDS011;685;47.196;11.880;2023-03-23T07:39:14;9.57;;;7.20;;
1382;SDS011;685;47.196;11.880;2023-03-23T07:41:41;8.77;;;6.97;;
1382;SDS011;685;47.196;11.880;2023-03-23T07:44:08;7.73;;;6.37;;
1382;SDS011;685;47.196;11.880;2023-03-23T07:46:35;8.50;;;6.63;;
1382;SDS011;685;47.196;11.880;2023-03-23T07:49:03;11.70;;;7.70;;
1382;SDS011;685;47.196;11.880;2023-03-23T07:51:31;7.77;;;7.07;;
1382;SDS011;685;47.196;11.880;2023-03-23T07:53:59;9.60;;;8.00;;
1382;SDS011;685;47.196;11.880;2023-03-23T07:56:27;8.80;;;7.13;;
1382;SDS011;685;47.196;11.880;2023-03-23T07:58:54;9.80;;;7.40;;
1382;SDS011;685;47.196;11.880;2023-03-23T08:01:21;8.73;;;7.87;;
1382;SDS011;685;47.196;11.880;2023-03-23T08:03:48;8.47;;;7.60;;
1382;SDS011;685;47.196;11.880;2023-03-23T08:06:16;9.93;;;7.13;;
1382;SDS011;685;47.196;11.880;2023-03-23T08:08:43;7.00;;;6.40;;
1382;SDS011;685;47.196;11.880;2023-03-23T08:11:12;8.30;;;6.13;;
1382;SDS011;685;47.196;11.880;2023-03-23T08:13:40;7.30;;;5.90;;
1382;SDS011;685;47.196;11.880;2023-03-23T08:16:07;6.73;;;6.03;;
1382;SDS011;685;47.196;11.880;2023-03-23T08:18:34;5.77;;;5.20;;
1382;SDS011;685;47.196;11.880;2023-03-23T08:21:02;6.07;;;5.00;;
1382;SDS011;685;47.196;11.880;2023-03-23T08:23:30;5.93;;;5.33;;
1382;SDS011;685;47.196;11.880;2023-03-23T08:25:57;6.23;;;5.63;;
1382;SDS011;685;47.196;11.880;2023-03-23T08:28:26;6.87;;;5.80;;
1382;SDS011;685;47.196;11.880;2023-03-23T08:30:53;6.10;;;5.50;;
1382;SDS011;685;47.196;11.880;2023-03-23T08:33:20;9.23;;;6.83;;
1382;SDS011;685;47.196;11.880;2023-03-23T08:35:53;6.63;;;5.67;;
1382;SDS011;685;47.196;11.880;2023-03-23T08:38:22;8.23;;;6.33;;
1382;SDS011;685;47.196;11.880;2023-03-23T08:40:49;6.00;;;5.00;;
1382;SDS011;685;47.196;11.880;2023-03-23T08:43:17;6.37;;;5.80;;
1382;SDS011;685;47.196;11.880;2023-03-23T08:45:45;6.30;;;5.70;;
1382;SDS011;685;47.196;11.880;2023-03-23T08:48:13;6.00;;;5.40;;
1382;SDS011;685;47.196;11.880;2023-03-23T08:50:40;6.40;;;5.80;;
1382;SDS011;685;47.196;11.880;2023-03-23T08:53:07;7.00;;;6.40;;
1382;SDS011;685;47.196;11.880;2023-03-23T08:55:34;7.30;;;6.60;;
1382;SDS011;685;47.196;11.880;2023-03-23T08:58:01;8.53;;;6.87;;
1382;SDS011;685;47.196;11.880;2023-03-23T09:00:28;8.47;;;6.23;;
1382;SDS011;685;47.196;11.880;2023-03-23T09:02:57;7.27;;;6.57;;
1382;SDS011;685;47.196;11.880;2023-03-23T09:05:25;7.63;;;6.90;;
1382;SDS011;685;47.196;11.880;2023-03-23T09:07:54;8.60;;;6.07;;
1382;SDS011;685;47.196;11.880;2023-03-23T09:10:24;7.37;;;6.67;;
1382;SDS011;685;47.196;11.880;2023-03-23T09:12:51;6.73;;;5.93;;
1382;SDS011;685;47.196;11.880;2023-03-23T09:15:19;10.07;;;6.23;;
1382;SDS011;685;47.196;11.880;2023-03-23T09:17:47;9.30;;;5.90;;
1382;SDS011;685;47.196;11.880;2023-03-23T09:20:18;7.10;;;6.30;;
1382;SDS011;685;47.196;11.880;2023-03-23T09:22:47;7.23;;;6.40;;
1382;SDS011;685;47.196;11.880;2023-03-23T09:25:17;6.50;;;5.87;;
1382;SDS011;685;47.196;11.880;2023-03-23T09:27:47;6.70;;;6.10;;
1382;SDS011;685;47.196;11.880;2023-03-23T09:30:18;9.27;;;6.77;;
1382;SDS011;685;47.196;11.880;2023-03-23T09:32:45;12.80;;;9.83;;
1382;SDS011;685;47.196;11.880;2023-03-23T09:35:14;6.77;;;5.93;;
1382;SDS011;685;47.196;11.880;2023-03-23T09:37:43;9.03;;;5.70;;
1382;SDS011;685;47.196;11.880;2023-03-23T09:40:13;7.43;;;6.40;;
1382;SDS011;685;47.196;11.880;2023-03-23T09:45:51;7.33;;;6.43;;
1382;SDS011;685;47.196;11.880;2023-03-23T09:48:29;7.57;;;6.50;;
1382;SDS011;685;47.196;11.880;2023-03-23T09:51:11;7.43;;;6.73;;
1382;SDS011;685;47.196;11.880;2023-03-23T09:53:47;6.53;;;5.93;;
1382;SDS011;685;47.196;11.880;2023-03-23T09:56:17;6.70;;;6.10;;
1382;SDS011;685;47.196;11.880;2023-03-23T09:58:46;7.83;;;6.70;;
1382;SDS011;685;47.196;11.880;2023-03-23T10:01:21;8.13;;;6.63;;
1382;SDS011;685;47.196;11.880;2023-03-23T10:03:55;7.20;;;6.43;;
1382;SDS011;685;47.196;11.880;2023-03-23T10:06:29;7.10;;;6.40;;
1382;SDS011;685;47.196;11.880;2023-03-23T10:08:57;6.73;;;6.13;;
1382;SDS011;685;47.196;11.880;2023-03-23T10:11:29;6.90;;;6.20;;
1382;SDS011;685;47.196;11.880;2023-03-23T10:14:06;7.37;;;6.67;;
1382;SDS011;685;47.196;11.880;2023-03-23T10:16:43;8.13;;;7.33;;
1382;SDS011;685;47.196;11.880;2023-03-23T10:19:18;6.97;;;6.37;;
1382;SDS011;685;47.196;11.880;2023-03-23T10:21:52;8.03;;;7.20;;
1382;SDS011;685;47.196;11.880;2023-03-23T10:24:24;9.17;;;7.63;;
1382;SDS011;685;47.196;11.880;2023-03-23T10:26:58;7.90;;;7.20;;
1382;SDS011;685;47.196;11.880;2023-03-23T10:29:31;9.50;;;8.10;;
1382;SDS011;685;47.196;11.880;2023-03-23T10:32:03;8.87;;;8.07;;
1382;SDS011;685;47.196;11.880;2023-03-23T10:34:39;9.30;;;7.77;;
1382;SDS011;685;47.196;11.880;2023-03-23T10:37:11;8.20;;;7.40;;
1382;SDS011;685;47.196;11.880;2023-03-23T10:39:43;8.00;;;7.20;;
1382;SDS011;685;47.196;11.880;2023-03-23T10:42:21;10.03;;;8.70;;
1382;SDS011;685;47.196;11.880;2023-03-23T10:44:49;8.47;;;7.50;;
1382;SDS011;685;47.196;11.880;2023-03-23T10:47:16;8.67;;;7.87;;
1382;SDS011;685;47.196;11.880;2023-03-23T10:49:43;9.37;;;8.03;;
1382;SDS011;685;47.196;11.880;2023-03-23T10:52:20;8.87;;;7.97;;
1382;SDS011;685;47.196;11.880;2023-03-23T10:54:55;7.90;;;7.07;;
1382;SDS011;685;47.196;11.880;2023-03-23T10:57:24;11.03;;;7.43;;
1382;SDS011;685;47.196;11.880;2023-03-23T10:59:57;8.23;;;6.70;;
1382;SDS011;685;47.196;11.880;2023-03-23T11:02:26;8.57;;;7.50;;
1382;SDS011;685;47.196;11.880;2023-03-23T11:04:58;9.30;;;8.40;;
1382;SDS011;685;47.196;11.880;2023-03-23T11:07:31;9.00;;;8.20;;
1382;SDS011;685;47.196;11.880;2023-03-23T11:10:05;8.67;;;7.87;;
1382;SDS011;685;47.196;11.880;2023-03-23T11:12:50;8.67;;;7.87;;
1382;SDS011;685;47.196;11.880;2023-03-23T11:15:27;10.50;;;8.07;;
1382;SDS011;685;47.196;11.880;2023-03-23T11:17:59;8.63;;;7.83;;
1382;SDS011;685;47.196;11.880;2023-03-23T11:20:28;8.07;;;7.37;;
1382;SDS011;685;47.196;11.880;2023-03-23T11:23:02;9.60;;;8.70;;
1382;SDS011;685;47.196;11.880;2023-03-23T11:28:44;8.30;;;7.50;;
1382;SDS011;685;47.196;11.880;2023-03-23T11:31:18;8.93;;;8.17;;
1382;SDS011;685;47.196;11.880;2023-03-23T11:33:53;8.80;;;8.00;;
1382;SDS011;685;47.196;11.880;2023-03-23T11:36:33;9.60;;;8.63;;
1382;SDS011;685;47.196;11.880;2023-03-23T11:39:20;9.20;;;8.40;;
1382;SDS011;685;47.196;11.880;2023-03-23T11:41:50;9.03;;;7.60;;
1382;SDS011;685;47.196;11.880;2023-03-23T11:44:20;9.80;;;8.40;;
1382;SDS011;685;47.196;11.880;2023-03-23T11:47:01;7.63;;;6.83;;
1382;SDS011;685;47.196;11.880;2023-03-23T11:49:38;9.27;;;8.30;;
1382;SDS011;685;47.196;11.880;2023-03-23T11:52:13;7.87;;;6.90;;
1382;SDS011;685;47.196;11.880;2023-03-23T11:54:59;8.53;;;7.67;;
1382;SDS011;685;47.196;11.880;2023-03-23T11:57:34;9.30;;;8.30;;
1382;SDS011;685;47.196;11.880;2023-03-23T12:00:01;9.47;;;8.57;;
1382;SDS011;685;47.196;11.880;2023-03-23T12:02:40;8.30;;;7.50;;
1382;SDS011;685;47.196;11.880;2023-03-23T12:05:32;10.30;;;9.30;;
1382;SDS011;685;47.196;11.880;2023-03-23T12:08:15;10.20;;;8.30;;
1382;SDS011;685;47.196;11.880;2023-03-23T12:10:53;8.73;;;7.67;;
1382;SDS011;685;47.196;11.880;2023-03-23T12:13:37;11.50;;;7.87;;
1382;SDS011;685;47.196;11.880;2023-03-23T12:16:19;8.10;;;7.30;;
1382;SDS011;685;47.196;11.880;2023-03-23T12:18:51;9.10;;;7.97;;
1382;SDS011;685;47.196;11.880;2023-03-23T12:21:25;9.70;;;8.90;;
1382;SDS011;685;47.196;11.880;2023-03-23T12:24:03;8.80;;;8.00;;
1382;SDS011;685;47.196;11.880;2023-03-23T12:26:43;12.27;;;7.70;;
1382;SDS011;685;47.196;11.880;2023-03-23T12:29:29;9.30;;;8.40;;
1382;SDS011;685;47.196;11.880;2023-03-23T12:32:25;10.23;;;9.10;;
1382;SDS011;685;47.196;11.880;2023-03-23T12:35:13;18.10;;;8.97;;
1382;SDS011;685;47.196;11.880;2023-03-23T12:37:51;13.50;;;8.70;;
1382;SDS011;685;47.196;11.880;2023-03-23T12:43:18;12.97;;;9.00;;
1382;SDS011;685;47.196;11.880;2023-03-23T12:45:54;12.23;;;9.93;;
1382;SDS011;685;47.196;11.880;2023-03-23T12:48:31;9.37;;;8.47;;
1382;SDS011;685;47.196;11.880;2023-03-23T12:51:06;9.20;;;7.93;;
1382;SDS011;685;47.196;11.880;2023-03-23T12:53:41;10.57;;;9.33;;
1382;SDS011;685;47.196;11.880;2023-03-23T12:56:16;12.00;;;9.70;;
1382;SDS011;685;47.196;11.880;2023-03-23T12:58:50;9.20;;;8.30;;
1382;SDS011;685;47.196;11.880;2023-03-23T13:01:21;14.73;;;13.13;;
1382;SDS011;685;47.196;11.880;2023-03-23T13:03:52;16.00;;;10.47;;
1382;SDS011;685;47.196;11.880;2023-03-23T13:06:24;10.20;;;9.40;;
1382;SDS011;685;47.196;11.880;2023-03-23T13:08:56;10.70;;;9.60;;
1382;SDS011;685;47.196;11.880;2023-03-23T13:11:29;10.90;;;9.80;;
1382;SDS011;685;47.196;11.880;2023-03-23T13:14:03;11.30;;;10.20;;
1382;SDS011;685;47.196;11.880;2023-03-23T13:16:51;10.73;;;9.73;;
1382;SDS011;685;47.196;11.880;2023-03-23T13:19:27;12.17;;;10.90;;
1382;SDS011;685;47.196;11.880;2023-03-23T13:22:01;11.03;;;9.03;;
1382;SDS011;685;47.196;11.880;2023-03-23T13:24:33;10.97;;;9.13;;
1382;SDS011;685;47.196;11.880;2023-03-23T13:27:04;9.87;;;8.73;;
1382;SDS011;685;47.196;11.880;2023-03-23T13:29:43;11.27;;;9.10;;
1382;SDS011;685;47.196;11.880;2023-03-23T13:32:11;11.60;;;10.50;;
1382;SDS011;685;47.196;11.880;2023-03-23T13:34:42;10.33;;;9.10;;
1382;SDS011;685;47.196;11.880;2023-03-23T13:37:10;9.97;;;8.97;;
1382;SDS011;685;47.196;11.880;2023-03-23T13:39:48;10.87;;;9.90;;
1382;SDS011;685;47.196;11.880;2023-03-23T13:42:18;14.77;;;10.20;;
1382;SDS011;685;47.196;11.880;2023-03-23T13:45:07;14.50;;;10.00;;
1382;SDS011;685;47.196;11.880;2023-03-23T13:47:46;11.23;;;10.17;;
1382;SDS011;685;47.196;11.880;2023-03-23T13:50:24;11.50;;;10.40;;
1382;SDS011;685;47.196;11.880;2023-03-23T13:52:55;11.30;;;10.20;;
1382;SDS011;685;47.196;11.880;2023-03-23T13:55:38;11.67;;;10.20;;
1382;SDS011;685;47.196;11.880;2023-03-23T13:58:11;10.00;;;9.00;;
1382;SDS011;685;47.196;11.880;2023-03-23T14:00:50;11.63;;;10.37;;
1382;SDS011;685;47.196;11.880;2023-03-23T14:03:36;10.90;;;9.80;;
1382;SDS011;685;47.196;11.880;2023-03-23T14:06:07;11.03;;;10.00;;
1382;SDS011;685;47.196;11.880;2023-03-23T14:08:41;12.53;;;9.83;;
1382;SDS011;685;47.196;11.880;2023-03-23T14:11:10;11.57;;;10.23;;
1382;SDS011;685;47.196;11.880;2023-03-23T14:13:43;10.77;;;9.67;;
1382;SDS011;685;47.196;11.880;2023-03-23T14:16:18;12.33;;;9.67;;
1382;SDS011;685;47.196;11.880;2023-03-23T14:18:51;11.43;;;10.23;;
1382;SDS011;685;47.196;11.880;2023-03-23T14:21:30;11.30;;;9.00;;
1382;SDS011;685;47.196;11.880;2023-03-23T14:24:00;11.40;;;7.50;;
1382;SDS011;685;47.196;11.880;2023-03-23T14:26:28;10.50;;;8.40;;
1382;SDS011;685;47.196;11.880;2023-03-23T14:28:55;10.83;;;8.53;;
1382;SDS011;685;47.196;11.880;2023-03-23T14:31:24;9.20;;;7.63;;
1382;SDS011;685;47.196;11.880;2023-03-23T14:33:53;9.00;;;7.60;;
1382;SDS011;685;47.196;11.880;2023-03-23T14:36:22;10.23;;;8.43;;
1382;SDS011;685;47.196;11.880;2023-03-23T14:38:55;9.90;;;7.93;;
1382;SDS011;685;47.196;11.880;2023-03-23T14:41:28;12.73;;;7.20;;
1382;SDS011;685;47.196;11.880;2023-03-23T14:43:56;8.60;;;7.07;;
1382;SDS011;685;47.196;11.880;2023-03-23T14:46:28;12.93;;;9.50;;
1382;SDS011;685;47.196;11.880;2023-03-23T14:48:56;9.00;;;8.10;;
1382;SDS011;685;47.196;11.880;2023-03-23T14:51:26;14.90;;;10.77;;
1382;SDS011;685;47.196;11.880;2023-03-23T14:53:54;12.33;;;10.93;;
1382;SDS011;685;47.196;11.880;2023-03-23T14:56:22;12.73;;;11.23;;
1382;SDS011;685;47.196;11.880;2023-03-23T14:58:53;12.87;;;11.57;;
1382;SDS011;685;47.196;11.880;2023-03-23T15:01:21;12.83;;;8.13;;
1382;SDS011;685;47.196;11.880;2023-03-23T15:03:55;17.17;;;11.67;;
1382;SDS011;685;47.196;11.880;2023-03-23T15:06:25;19.10;;;13.43;;
1382;SDS011;685;47.196;11.880;2023-03-23T15:08:55;16.43;;;11.77;;
1382;SDS011;685;47.196;11.880;2023-03-23T15:11:24;15.00;;;11.17;;
1382;SDS011;685;47.196;11.880;2023-03-23T15:13:56;16.40;;;13.13;;
1382;SDS011;685;47.196;11.880;2023-03-23T15:16:27;18.07;;;14.37;;
1382;SDS011;685;47.196;11.880;2023-03-23T15:18:58;18.30;;;14.60;;
1382;SDS011;685;47.196;11.880;2023-03-23T15:21:27;15.97;;;12.97;;
1382;SDS011;685;47.196;11.880;2023-03-23T15:23:56;15.73;;;12.10;;
1382;SDS011;685;47.196;11.880;2023-03-23T15:26:31;22.03;;;17.20;;
1382;SDS011;685;47.196;11.880;2023-03-23T15:29:08;19.00;;;14.73;;
1382;SDS011;685;47.196;11.880;2023-03-23T15:31:42;18.50;;;13.40;;
1382;SDS011;685;47.196;11.880;2023-03-23T15:34:16;17.90;;;14.10;;
1382;SDS011;685;47.196;11.880;2023-03-23T15:36:55;14.40;;;12.73;;
1382;SDS011;685;47.196;11.880;2023-03-23T15:39:23;18.87;;;13.90;;
1382;SDS011;685;47.196;11.880;2023-03-23T15:41:51;20.40;;;14.23;;
1382;SDS011;685;47.196;11.880;2023-03-23T15:44:23;14.27;;;11.93;;